Time;durP1;ratioP1;P1;durP2;ratioP2;P2;SDS_P1;SDS_P2;PMS_P1;PMS_P2;Temp;Humidity;BMP_temperature;BMP_pressure;BME280_temperature;BME280_humidity;BME280_pressure;Samples;Min_cycle;Max_cycle;Signal;HPM_P1;HPM_P2
2021/11/28 00:00:52;;;;;;;15.67;10.03;;;-0.40;99.90;;;;;;5071703;28;20180;-79
2021/11/28 00:03:19;;;;;;;11.47;7.80;;;-0.40;99.90;;;;;;5053211;28;20264;-80
2021/11/28 00:06:00;;;;;;;10.97;6.53;;;-0.50;99.90;;;;;;5061867;28;20242;-76
2021/11/28 00:13:54;;;;;;;6.47;4.97;;;-0.50;99.90;;;;;;5071409;28;20752;-78
2021/11/28 00:16:20;;;;;;;6.83;4.43;;;-0.50;99.90;;;;;;5070242;28;20169;-80
2021/11/28 00:18:46;;;;;;;7.13;5.00;;;-0.60;99.90;;;;;;5070603;28;20200;-78
2021/11/28 00:21:12;;;;;;;7.30;4.50;;;-0.60;99.90;;;;;;5070217;28;20182;-77
2021/11/28 00:23:38;;;;;;;6.83;4.33;;;-0.50;99.90;;;;;;5052755;28;20182;-79
2021/11/28 00:26:04;;;;;;;6.87;4.57;;;-0.50;99.90;;;;;;5052489;28;20242;-77
2021/11/28 00:28:30;;;;;;;7.27;4.20;;;-0.60;99.90;;;;;;5070392;28;20203;-78
2021/11/28 00:30:56;;;;;;;6.23;4.60;;;-0.60;99.90;;;;;;5051587;28;20781;-78
2021/11/28 00:33:22;;;;;;;6.83;4.13;;;-0.60;99.90;;;;;;5052169;28;20182;-79
2021/11/28 00:35:48;;;;;;;6.53;4.00;;;-0.70;99.90;;;;;;5052308;28;20547;-76
2021/11/28 00:38:13;;;;;;;9.77;5.13;;;-0.70;99.90;;;;;;5070229;28;20216;-76
2021/11/28 00:40:39;;;;;;;6.70;4.40;;;-0.70;99.90;;;;;;5051932;28;21199;-80
2021/11/28 00:43:05;;;;;;;7.33;3.93;;;-0.80;99.90;;;;;;5052331;28;20190;-79
2021/11/28 00:45:31;;;;;;;7.73;3.93;;;-0.80;99.90;;;;;;5070059;28;20186;-80
2021/11/28 00:47:56;;;;;;;7.43;4.17;;;-0.80;99.90;;;;;;5069092;28;20202;-78
2021/11/28 00:52:48;;;;;;;17.90;10.60;;;-0.90;99.90;;;;;;5069443;28;20241;-79
2021/11/28 00:55:14;;;;;;;11.30;7.90;;;-0.90;99.90;;;;;;5068977;28;20231;-78
2021/11/28 00:57:40;;;;;;;10.83;6.83;;;-0.90;99.90;;;;;;5067463;28;20223;-78
2021/11/28 01:00:08;;;;;;;8.40;5.33;;;-0.90;99.90;;;;;;5066617;28;21177;-78
2021/11/28 01:02:34;;;;;;;9.70;4.30;;;-1.00;99.90;;;;;;5067637;28;20541;-78
2021/11/28 01:05:02;;;;;;;7.47;3.27;;;-1.00;99.90;;;;;;5056378;28;20196;-78
2021/11/28 01:07:27;;;;;;;5.93;3.57;;;-1.00;99.90;;;;;;5050555;28;20255;-78
2021/11/28 01:09:54;;;;;;;6.80;3.70;;;-1.10;99.90;;;;;;5068576;28;20178;-79
2021/11/28 01:12:21;;;;;;;5.87;3.97;;;-1.10;99.90;;;;;;5058357;28;20213;-79
2021/11/28 01:14:47;;;;;;;4.77;3.57;;;-1.20;99.90;;;;;;5068927;28;20181;-79
2021/11/28 01:17:13;;;;;;;5.97;3.40;;;-1.10;99.90;;;;;;5068788;28;20208;-79
2021/11/28 01:19:38;;;;;;;6.00;3.53;;;-1.20;99.90;;;;;;5068992;28;20190;-79
2021/11/28 01:22:07;;;;;;;3.47;2.93;;;-1.10;99.90;;;;;;5051637;28;20655;-78
2021/11/28 01:24:34;;;;;;;4.77;3.57;;;-1.20;99.90;;;;;;5068398;28;20212;-79
2021/11/28 01:27:01;;;;;;;6.37;3.40;;;-1.20;99.90;;;;;;5050620;28;20254;-77
2021/11/28 01:29:26;;;;;;;5.67;3.67;;;-1.20;99.90;;;;;;5069152;28;20230;-79
2021/11/28 01:31:53;;;;;;;4.67;3.67;;;-1.20;99.90;;;;;;5068944;28;20666;-78
2021/11/28 01:34:18;;;;;;;4.70;3.50;;;-1.20;99.90;;;;;;5068397;28;20271;-78
2021/11/28 01:36:44;;;;;;;4.73;3.20;;;-1.20;99.90;;;;;;5067457;28;20222;-77
2021/11/28 01:39:10;;;;;;;7.63;3.77;;;-1.20;99.90;;;;;;5068856;28;20177;-79
2021/11/28 01:41:38;;;;;;;5.30;3.30;;;-1.30;99.90;;;;;;5050691;28;20232;-79
2021/11/28 01:44:05;;;;;;;4.77;3.13;;;-1.30;99.90;;;;;;5068810;28;20247;-79
2021/11/28 01:46:32;;;;;;;5.20;3.23;;;-1.40;99.90;;;;;;5068197;28;20186;-78
2021/11/28 01:48:57;;;;;;;4.33;2.97;;;-1.30;99.90;;;;;;5068501;28;20225;-79
2021/11/28 01:51:23;;;;;;;5.03;3.40;;;-1.40;99.90;;;;;;5050528;28;20239;-80
2021/11/28 01:53:51;;;;;;;5.47;3.43;;;-1.40;99.90;;;;;;5068641;28;20169;-77
2021/11/28 01:56:17;;;;;;;4.47;3.50;;;-1.40;99.90;;;;;;5067425;28;20205;-79
2021/11/28 01:58:43;;;;;;;5.50;3.37;;;-1.40;99.90;;;;;;5068379;28;20283;-79
2021/11/28 02:01:12;;;;;;;4.67;3.37;;;-1.40;99.90;;;;;;5069070;28;21007;-79
2021/11/28 02:03:39;;;;;;;5.13;3.07;;;-1.40;99.90;;;;;;5068010;28;20200;-79
2021/11/28 02:06:07;;;;;;;6.03;3.77;;;-1.40;99.90;;;;;;5068015;28;20208;-79
2021/11/28 02:08:33;;;;;;;5.20;2.80;;;-1.40;99.90;;;;;;5048291;28;20749;-79
2021/11/28 02:10:59;;;;;;;5.63;3.00;;;-1.50;99.90;;;;;;5068205;28;20204;-79
2021/11/28 02:13:25;;;;;;;7.87;3.23;;;-1.50;99.90;;;;;;5050305;28;20216;-78
2021/11/28 02:15:51;;;;;;;5.63;2.93;;;-1.50;99.90;;;;;;5050401;28;20177;-78
2021/11/28 02:18:18;;;;;;;7.07;3.67;;;-1.40;99.90;;;;;;5068055;28;20201;-79
2021/11/28 02:20:52;;;;;;;5.77;2.80;;;-1.50;99.90;;;;;;5049671;28;20185;-77
2021/11/28 02:23:18;;;;;;;5.13;3.63;;;-1.50;99.90;;;;;;5050409;28;20182;-79
2021/11/28 02:25:44;;;;;;;4.53;3.07;;;-1.50;99.90;;;;;;5067992;28;20251;-78
2021/11/28 02:28:10;;;;;;;5.67;3.10;;;-1.50;99.90;;;;;;5068264;28;20212;-78
2021/11/28 02:30:36;;;;;;;4.80;3.00;;;-1.50;99.90;;;;;;5067864;28;20182;-78
2021/11/28 02:33:03;;;;;;;4.00;2.77;;;-1.60;99.90;;;;;;5067869;28;20804;-80
2021/11/28 02:35:32;;;;;;;6.07;3.30;;;-1.50;99.90;;;;;;5079172;28;20234;-78
2021/11/28 02:37:58;;;;;;;5.87;3.13;;;-1.50;99.90;;;;;;5060688;28;20213;-78
2021/11/28 02:40:26;;;;;;;5.10;2.97;;;-1.60;99.90;;;;;;5071524;28;20232;-78
2021/11/28 02:42:53;;;;;;;4.40;2.77;;;-1.60;99.90;;;;;;5050116;28;20529;-79
2021/11/28 02:45:20;;;;;;;4.87;3.00;;;-1.70;99.90;;;;;;5068680;28;20269;-79
2021/11/28 02:47:47;;;;;;;4.53;2.90;;;-1.60;99.90;;;;;;5068670;28;20205;-79
2021/11/28 02:50:15;;;;;;;6.20;3.10;;;-1.60;99.90;;;;;;5068829;28;20188;-79
2021/11/28 02:52:41;;;;;;;4.40;3.13;;;-1.40;99.90;;;;;;5067239;28;20178;-78
2021/11/28 02:55:08;;;;;;;4.17;2.53;;;-1.10;99.90;;;;;;5050641;28;20562;-78
2021/11/28 02:57:33;;;;;;;4.53;2.70;;;-1.10;99.90;;;;;;5067346;28;20241;-77
2021/11/28 02:59:59;;;;;;;5.97;2.90;;;-1.20;99.90;;;;;;5066380;28;20205;-78
2021/11/28 03:02:25;;;;;;;4.50;2.87;;;-0.90;99.90;;;;;;5066924;28;20544;-78
2021/11/28 03:04:53;;;;;;;6.53;2.63;;;-0.90;99.90;;;;;;5066531;28;20226;-78
2021/11/28 03:07:20;;;;;;;6.67;2.90;;;-0.90;99.90;;;;;;5056845;28;20288;-78
2021/11/28 03:09:45;;;;;;;5.10;2.60;;;-0.90;99.90;;;;;;5067009;28;20189;-77
2021/11/28 03:12:12;;;;;;;7.60;2.87;;;-1.10;99.90;;;;;;5049366;28;20178;-79
2021/11/28 03:14:38;;;;;;;4.73;2.73;;;-1.10;99.90;;;;;;5066538;28;20746;-79
2021/11/28 03:17:05;;;;;;;3.93;2.63;;;-1.20;99.90;;;;;;5066565;28;20584;-78
2021/11/28 03:19:30;;;;;;;5.10;2.73;;;-1.20;99.90;;;;;;5048975;28;20188;-78
2021/11/28 03:21:56;;;;;;;3.63;2.43;;;-1.30;99.90;;;;;;5067117;28;20174;-78
2021/11/28 03:24:22;;;;;;;5.23;2.90;;;-1.20;99.90;;;;;;5068925;28;20181;-78
2021/11/28 03:26:48;;;;;;;3.10;2.80;;;-1.20;99.90;;;;;;5052643;28;20654;-78
2021/11/28 03:29:20;;;;;;;5.70;3.20;;;-1.30;99.90;;;;;;5070536;28;20184;-78
2021/11/28 03:31:50;;;;;;;4.93;3.60;;;-1.20;99.90;;;;;;5052371;28;20191;-79
2021/11/28 03:34:17;;;;;;;4.67;3.60;;;-1.20;99.90;;;;;;5070535;28;20235;-79
2021/11/28 03:36:50;;;;;;;5.37;3.47;;;-1.30;99.90;;;;;;5063271;28;20248;-78
2021/11/28 03:39:18;;;;;;;6.93;4.03;;;-1.40;99.90;;;;;;5070119;28;20193;-79
2021/11/28 03:41:45;;;;;;;7.87;3.10;;;-1.40;99.90;;;;;;5070789;28;20635;-78
2021/11/28 03:44:11;;;;;;;4.03;3.10;;;-1.30;99.90;;;;;;5051995;28;20174;-76
2021/11/28 03:46:37;;;;;;;5.43;3.20;;;-1.40;99.90;;;;;;5070749;28;20188;-78
2021/11/28 03:49:04;;;;;;;6.80;3.40;;;-1.50;99.90;;;;;;5070107;28;20209;-78
2021/11/28 03:51:30;;;;;;;9.93;4.43;;;-1.60;99.90;;;;;;5069450;28;20186;-77
2021/11/28 03:53:55;;;;;;;6.40;3.10;;;-1.70;99.90;;;;;;5051464;28;20266;-77
2021/11/28 03:56:22;;;;;;;6.57;4.00;;;-1.70;99.90;;;;;;5069509;28;20245;-77
2021/11/28 03:58:48;;;;;;;7.50;3.93;;;-1.80;99.90;;;;;;5069173;28;20217;-78
2021/11/28 04:01:16;;;;;;;5.83;2.93;;;-1.80;99.90;;;;;;5068977;28;20178;-77
2021/11/28 04:03:42;;;;;;;5.10;3.50;;;-1.80;99.90;;;;;;5068212;28;20205;-77
2021/11/28 04:06:08;;;;;;;4.53;2.60;;;-1.90;99.90;;;;;;5050861;28;20655;-78
2021/11/28 04:08:34;;;;;;;5.97;3.43;;;-1.90;99.90;;;;;;5068699;28;20207;-77
2021/11/28 04:11:00;;;;;;;4.40;3.10;;;-2.00;99.90;;;;;;5068951;28;20212;-78
2021/11/28 04:13:26;;;;;;;3.53;2.40;;;-2.00;99.90;;;;;;5068886;28;20186;-78
2021/11/28 04:15:51;;;;;;;3.63;2.70;;;-1.90;99.90;;;;;;5068545;28;20256;-77
2021/11/28 04:18:18;;;;;;;5.23;2.97;;;-2.00;99.90;;;;;;5068354;28;20202;-78
2021/11/28 04:20:44;;;;;;;5.53;2.63;;;-1.90;99.90;;;;;;5067709;28;20206;-76
2021/11/28 04:23:10;;;;;;;5.07;3.13;;;-1.90;99.90;;;;;;5052468;28;20752;-77
2021/11/28 04:25:36;;;;;;;5.87;2.73;;;-1.90;99.90;;;;;;5069890;28;20181;-78
2021/11/28 04:28:02;;;;;;;4.47;2.87;;;-1.90;99.90;;;;;;5069668;28;20209;-78
2021/11/28 04:30:28;;;;;;;8.07;2.90;;;-2.00;99.90;;;;;;5069853;28;20178;-77
2021/11/28 04:32:54;;;;;;;4.83;2.80;;;-2.00;99.90;;;;;;5052400;28;20990;-78
2021/11/28 04:35:21;;;;;;;5.73;3.27;;;-2.00;99.90;;;;;;5069295;28;20188;-78
2021/11/28 04:37:46;;;;;;;4.57;2.70;;;-2.00;99.90;;;;;;5051453;28;20236;-78
2021/11/28 04:40:12;;;;;;;5.37;3.37;;;-2.10;99.90;;;;;;5069979;28;20205;-79
2021/11/28 04:42:38;;;;;;;4.73;3.03;;;-2.00;99.90;;;;;;5070088;28;20197;-78
2021/11/28 04:45:05;;;;;;;5.23;2.90;;;-2.00;99.90;;;;;;5051798;28;20192;-78
2021/11/28 04:47:31;;;;;;;5.60;3.10;;;-2.00;99.90;;;;;;5068299;28;20209;-77
2021/11/28 04:49:56;;;;;;;4.03;3.13;;;-2.10;99.90;;;;;;5051664;28;20182;-76
2021/11/28 04:52:22;;;;;;;12.93;3.40;;;-2.10;99.90;;;;;;5051740;28;20180;-79
2021/11/28 04:54:48;;;;;;;4.73;3.63;;;-2.10;99.90;;;;;;5068991;28;20173;-78
2021/11/28 04:57:14;;;;;;;4.93;3.43;;;-2.10;99.90;;;;;;5069074;28;20262;-77
2021/11/28 04:59:40;;;;;;;6.90;3.63;;;-2.10;99.90;;;;;;5069006;28;20231;-78
2021/11/28 05:02:06;;;;;;;10.50;5.60;;;-2.10;99.90;;;;;;5069704;28;20178;-77
2021/11/28 05:04:31;;;;;;;8.63;5.90;;;-2.20;99.90;;;;;;5068708;28;20198;-78
2021/11/28 05:06:57;;;;;;;11.17;5.20;;;-2.20;99.90;;;;;;5069398;28;20248;-79
2021/11/28 05:09:22;;;;;;;6.80;4.20;;;-2.30;99.90;;;;;;5067513;28;20188;-77
2021/11/28 05:11:48;;;;;;;5.13;3.53;;;-2.30;99.90;;;;;;5051499;28;20186;-77
2021/11/28 05:14:14;;;;;;;7.60;3.87;;;-2.30;99.90;;;;;;5069123;28;20182;-78
2021/11/28 05:16:40;;;;;;;6.17;4.07;;;-2.30;99.90;;;;;;5068675;28;20224;-76
2021/11/28 05:19:06;;;;;;;4.47;3.40;;;-2.30;99.90;;;;;;5051309;28;20218;-78
2021/11/28 05:21:31;;;;;;;7.77;3.63;;;-2.30;99.90;;;;;;5050836;28;20606;-76
2021/11/28 05:23:57;;;;;;;7.57;3.70;;;-2.40;99.90;;;;;;5069306;28;20192;-78
2021/11/28 05:26:23;;;;;;;6.67;4.63;;;-2.30;99.90;;;;;;5067951;28;20581;-78
2021/11/28 05:28:49;;;;;;;11.77;6.43;;;-2.30;99.90;;;;;;5065705;28;20212;-77
2021/11/28 05:31:18;;;;;;;29.40;15.30;;;-2.30;99.90;;;;;;5064803;28;20721;-78
2021/11/28 05:33:48;;;;;;;37.10;16.83;;;-2.40;99.90;;;;;;5067925;28;20177;-77
2021/11/28 05:36:15;;;;;;;17.67;9.53;;;-2.40;99.90;;;;;;5049708;28;20679;-77
2021/11/28 05:38:41;;;;;;;17.57;9.00;;;-2.40;99.90;;;;;;5068422;28;20197;-77
2021/11/28 05:41:07;;;;;;;10.23;5.47;;;-2.50;99.90;;;;;;5050492;28;20186;-78
2021/11/28 05:43:33;;;;;;;6.37;4.13;;;-2.60;99.90;;;;;;5068549;28;20242;-78
2021/11/28 05:45:59;;;;;;;6.27;3.90;;;-2.50;99.90;;;;;;5068201;28;20264;-78
2021/11/28 05:48:24;;;;;;;5.53;3.77;;;-2.50;99.90;;;;;;5068343;28;20346;-78
2021/11/28 05:50:50;;;;;;;7.30;4.37;;;-2.60;99.90;;;;;;5050655;28;20178;-78
2021/11/28 05:53:16;;;;;;;8.93;5.63;;;-2.40;99.90;;;;;;5069308;28;20181;-77
2021/11/28 05:55:42;;;;;;;12.53;7.27;;;-2.30;99.90;;;;;;5050620;28;20186;-78
2021/11/28 05:58:08;;;;;;;11.40;6.17;;;-2.40;99.90;;;;;;5049398;28;20217;-78
2021/11/28 06:00:34;;;;;;;10.07;5.50;;;-2.40;99.90;;;;;;5049296;28;20182;-76
2021/11/28 06:03:00;;;;;;;7.27;5.17;;;-2.40;99.90;;;;;;5049175;28;20256;-78
2021/11/28 06:05:26;;;;;;;7.13;4.37;;;-2.40;99.90;;;;;;5066844;28;20190;-77
2021/11/28 06:07:52;;;;;;;8.20;4.90;;;-2.50;99.90;;;;;;5065963;28;20207;-78
2021/11/28 06:10:17;;;;;;;5.93;4.13;;;-2.60;99.90;;;;;;5069395;28;20188;-78
2021/11/28 06:12:43;;;;;;;5.93;4.03;;;-2.60;99.90;;;;;;5051728;28;20173;-78
2021/11/28 06:15:09;;;;;;;8.07;3.83;;;-2.70;99.90;;;;;;5055421;28;20227;-79
2021/11/28 06:17:34;;;;;;;6.90;4.43;;;-2.60;99.90;;;;;;5047514;28;21113;-77
2021/11/28 06:20:00;;;;;;;7.83;3.80;;;-2.60;99.90;;;;;;5066120;28;20177;-78
2021/11/28 06:22:26;;;;;;;6.10;3.50;;;-2.60;99.90;;;;;;5065332;28;20200;-77
2021/11/28 06:24:52;;;;;;;5.37;3.63;;;-2.40;99.90;;;;;;5046660;28;20610;-77
2021/11/28 06:27:19;;;;;;;6.07;3.80;;;-2.40;99.90;;;;;;5061440;28;20691;-76
2021/11/28 06:29:45;;;;;;;10.07;4.20;;;-2.30;99.90;;;;;;5063473;28;20169;-78
2021/11/28 06:32:10;;;;;;;6.23;3.57;;;-2.30;99.90;;;;;;5063396;28;20176;-77
2021/11/28 06:34:36;;;;;;;5.50;3.50;;;-2.20;99.90;;;;;;5064926;28;20249;-77
2021/11/28 06:37:01;;;;;;;4.63;3.80;;;-2.30;99.90;;;;;;5065923;28;20225;-78
2021/11/28 06:39:27;;;;;;;6.40;4.40;;;-2.40;99.90;;;;;;5065653;28;20228;-77
2021/11/28 06:41:53;;;;;;;6.47;4.00;;;-2.30;99.90;;;;;;5047611;28;20685;-77
2021/11/28 06:44:18;;;;;;;5.13;3.63;;;-2.30;99.90;;;;;;5064864;28;20223;-77
2021/11/28 06:46:44;;;;;;;6.03;3.80;;;-2.40;99.90;;;;;;5063235;28;20553;-77
2021/11/28 06:49:09;;;;;;;4.37;3.33;;;-2.30;99.90;;;;;;5065534;28;20683;-78
2021/11/28 06:51:35;;;;;;;5.77;3.90;;;-2.30;99.90;;;;;;5047665;28;20186;-78
2021/11/28 06:54:01;;;;;;;6.40;3.63;;;-2.30;99.90;;;;;;5047433;28;20177;-78
2021/11/28 06:56:26;;;;;;;5.70;3.60;;;-2.20;99.90;;;;;;5065498;28;20182;-77
2021/11/28 06:58:52;;;;;;;8.23;3.97;;;-2.30;99.90;;;;;;5047924;28;20252;-79
2021/11/28 07:01:17;;;;;;;8.60;4.17;;;-2.20;99.90;;;;;;5068127;28;21059;-77
2021/11/28 07:03:43;;;;;;;6.83;4.40;;;-2.30;99.90;;;;;;5065220;28;20217;-76
2021/11/28 07:06:09;;;;;;;6.40;4.10;;;-2.30;99.90;;;;;;5065927;28;20181;-80
2021/11/28 07:08:35;;;;;;;6.27;3.93;;;-2.30;99.90;;;;;;5046875;28;20213;-77
2021/11/28 07:11:00;;;;;;;8.57;4.17;;;-2.30;99.90;;;;;;5066651;28;20546;-76
2021/11/28 07:13:26;;;;;;;6.60;4.53;;;-2.30;99.90;;;;;;5050162;28;20178;-79
2021/11/28 07:15:52;;;;;;;5.03;3.50;;;-2.40;99.90;;;;;;5051477;28;20176;-78
2021/11/28 07:18:18;;;;;;;6.83;3.93;;;-2.40;99.90;;;;;;5051355;28;20209;-80
2021/11/28 07:20:46;;;;;;;6.67;4.13;;;-2.30;99.90;;;;;;5069184;28;20189;-77
2021/11/28 07:23:12;;;;;;;6.17;4.10;;;-2.20;99.90;;;;;;5051619;28;20178;-75
2021/11/28 07:25:37;;;;;;;5.70;4.07;;;-2.20;99.90;;;;;;5066784;28;20189;-76
2021/11/28 07:28:03;;;;;;;8.87;5.13;;;-2.20;99.90;;;;;;5063702;28;20211;-79
2021/11/28 07:30:30;;;;;;;5.30;4.17;;;-2.10;99.90;;;;;;5065585;28;20189;-75
2021/11/28 07:32:56;;;;;;;10.43;5.63;;;-2.10;99.90;;;;;;5045173;28;20177;-78
2021/11/28 07:35:22;;;;;;;11.33;6.60;;;-2.00;99.90;;;;;;5061029;28;20617;-78
2021/11/28 07:37:48;;;;;;;8.80;4.80;;;-2.00;99.90;;;;;;5044724;28;20245;-76
2021/11/28 07:40:14;;;;;;;5.90;3.67;;;-1.90;99.90;;;;;;5048832;28;20220;-75
2021/11/28 07:42:40;;;;;;;5.73;4.30;;;-1.90;99.90;;;;;;5067522;28;20221;-79
2021/11/28 07:45:08;;;;;;;8.87;4.43;;;-1.80;99.90;;;;;;5070710;28;20204;-79
2021/11/28 07:47:35;;;;;;;7.10;4.57;;;-1.80;99.90;;;;;;5069990;28;20219;-77
2021/11/28 07:50:01;;;;;;;7.37;4.20;;;-1.80;99.90;;;;;;5054309;28;20201;-78
2021/11/28 07:52:27;;;;;;;7.50;5.43;;;-1.80;99.90;;;;;;5053423;28;20177;-78
2021/11/28 07:54:53;;;;;;;10.87;6.40;;;-1.70;99.90;;;;;;5058845;28;20577;-77
2021/11/28 07:57:18;;;;;;;16.97;9.60;;;-1.60;99.90;;;;;;5050223;28;20212;-78
2021/11/28 07:59:44;;;;;;;22.80;13.60;;;-1.60;99.90;;;;;;5051518;28;20173;-78
2021/11/28 08:02:14;;;;;;;52.33;27.47;;;-1.60;99.90;;;;;;5066569;28;20182;-79
2021/11/28 08:04:40;;;;;;;91.40;51.13;;;-1.40;99.90;;;;;;5051936;28;20528;-78
2021/11/28 08:07:07;;;;;;;25.50;14.97;;;-1.30;99.90;;;;;;5083463;28;20205;-77
2021/11/28 08:09:32;;;;;;;15.43;9.63;;;-1.30;99.90;;;;;;5077136;28;20189;-80
2021/11/28 08:11:58;;;;;;;9.03;6.30;;;-1.20;99.90;;;;;;5053472;28;20174;-80
2021/11/28 08:14:24;;;;;;;11.17;8.87;;;-1.20;99.90;;;;;;5067205;28;20243;-80
2021/11/28 08:16:49;;;;;;;11.30;10.00;;;-1.00;99.90;;;;;;5071207;28;20190;-80
2021/11/28 08:19:15;;;;;;;11.50;5.93;;;-1.00;99.90;;;;;;5053335;28;20178;-79
2021/11/28 08:21:40;;;;;;;9.53;6.17;;;-0.90;99.90;;;;;;5052631;28;20188;-80
2021/11/28 08:24:06;;;;;;;10.83;5.90;;;-0.80;99.90;;;;;;5071858;28;20178;-79
2021/11/28 08:26:35;;;;;;;6.37;4.73;;;-0.70;99.90;;;;;;5053386;28;20200;-79
2021/11/28 08:29:02;;;;;;;7.27;4.63;;;-0.50;99.90;;;;;;5051132;28;20201;-80
2021/11/28 08:31:28;;;;;;;7.40;5.50;;;-0.30;99.90;;;;;;5068183;28;20182;-80
2021/11/28 08:33:54;;;;;;;8.50;5.27;;;-0.10;99.90;;;;;;5067851;28;20264;-78
2021/11/28 08:36:20;;;;;;;7.50;5.40;;;0.10;99.90;;;;;;5047963;28;20265;-77
2021/11/28 08:38:48;;;;;;;9.37;5.80;;;0.30;99.90;;;;;;5048252;28;20755;-78
2021/11/28 08:41:14;;;;;;;13.60;6.57;;;0.40;99.90;;;;;;5068783;28;20243;-80
2021/11/28 08:43:41;;;;;;;9.40;6.73;;;0.60;99.90;;;;;;5049824;28;20186;-77
2021/11/28 08:46:07;;;;;;;9.47;6.17;;;0.70;99.90;;;;;;5070460;28;20181;-79
2021/11/28 08:48:34;;;;;;;10.57;7.57;;;0.80;99.90;;;;;;5048438;28;20201;-79
2021/11/28 08:51:00;;;;;;;10.27;5.80;;;0.90;99.90;;;;;;5048042;28;20265;-77
2021/11/28 08:53:26;;;;;;;8.53;5.70;;;1.00;99.90;;;;;;5066810;28;20185;-78
2021/11/28 08:55:52;;;;;;;6.53;4.93;;;1.20;99.90;;;;;;5065893;28;20184;-77
2021/11/28 08:58:18;;;;;;;8.57;4.90;;;1.40;99.90;;;;;;5044950;28;20809;-79
2021/11/28 09:00:43;;;;;;;6.43;4.80;;;1.60;99.90;;;;;;5048397;28;20186;-76
2021/11/28 09:03:09;;;;;;;7.33;4.90;;;1.60;99.90;;;;;;5065900;28;20802;-79
2021/11/28 09:05:35;;;;;;;6.23;4.80;;;1.60;99.90;;;;;;5044872;28;20190;-76
2021/11/28 09:08:02;;;;;;;8.27;4.87;;;1.50;99.90;;;;;;5063767;28;21031;-77
2021/11/28 09:10:29;;;;;;;6.30;4.40;;;1.40;99.90;;;;;;5063372;28;20185;-79
2021/11/28 09:12:55;;;;;;;6.47;4.60;;;1.40;99.90;;;;;;5049205;28;20174;-78
2021/11/28 09:15:22;;;;;;;6.70;4.70;;;1.30;99.90;;;;;;5064664;28;20920;-79
2021/11/28 09:17:54;;;;;;;6.17;4.63;;;1.30;99.90;;;;;;5063882;28;20269;-78
2021/11/28 09:20:24;;;;;;;7.37;5.03;;;1.20;99.90;;;;;;5050644;28;20239;-79
2021/11/28 09:25:17;;;;;;;8.20;5.23;;;1.30;99.90;;;;;;5068022;28;20601;-76
2021/11/28 09:27:44;;;;;;;7.50;4.80;;;1.30;99.90;;;;;;5049593;28;20201;-78
2021/11/28 09:30:11;;;;;;;7.20;4.83;;;1.30;99.90;;;;;;5048635;28;20228;-79
2021/11/28 09:32:36;;;;;;;6.87;4.80;;;1.40;99.90;;;;;;5042359;28;20186;-79
2021/11/28 09:35:03;;;;;;;5.67;4.73;;;1.30;99.90;;;;;;5042066;28;20185;-80
2021/11/28 09:37:28;;;;;;;6.03;3.97;;;1.40;99.90;;;;;;5061369;28;20216;-78
2021/11/28 09:39:54;;;;;;;7.40;4.33;;;1.30;99.90;;;;;;5045040;28;20268;-78
2021/11/28 09:42:25;;;;;;;5.93;4.70;;;1.30;99.90;;;;;;5059780;28;20715;-78
2021/11/28 09:44:51;;;;;;;7.87;4.53;;;1.20;99.90;;;;;;5057952;28;20186;-77
2021/11/28 09:47:19;;;;;;;7.03;4.67;;;1.30;99.90;;;;;;5057569;28;20375;-78
2021/11/28 09:49:45;;;;;;;8.03;4.67;;;1.40;99.90;;;;;;5036241;28;20182;-78
2021/11/28 09:52:21;;;;;;;8.07;4.50;;;1.60;99.90;;;;;;5033457;28;20189;-78
2021/11/28 09:54:48;;;;;;;6.53;4.43;;;1.70;99.90;;;;;;5062883;28;20243;-78
2021/11/28 09:57:16;;;;;;;6.47;4.80;;;1.80;99.90;;;;;;5065380;28;20201;-78
2021/11/28 09:59:47;;;;;;;6.93;4.30;;;1.90;99.90;;;;;;5044257;28;20178;-79
2021/11/28 10:02:24;;;;;;;6.97;4.40;;;2.10;99.90;;;;;;5059895;28;20185;-79
2021/11/28 10:04:50;;;;;;;5.63;4.10;;;2.10;99.90;;;;;;5054438;28;20179;-79
2021/11/28 10:07:18;;;;;;;8.30;4.90;;;2.10;99.90;;;;;;5039130;28;20686;-77
2021/11/28 10:09:45;;;;;;;6.27;5.00;;;2.20;99.90;;;;;;5058941;28;20198;-80
2021/11/28 10:12:16;;;;;;;10.80;4.67;;;2.30;99.90;;;;;;5040527;28;20188;-77
2021/11/28 10:14:48;;;;;;;6.07;4.27;;;2.40;99.90;;;;;;5059538;28;20235;-78
2021/11/28 10:17:15;;;;;;;7.20;4.47;;;2.50;99.90;;;;;;5061437;28;20630;-79
2021/11/28 10:19:41;;;;;;;6.60;4.50;;;2.50;99.90;;;;;;5063903;28;20272;-79
2021/11/28 10:22:07;;;;;;;7.03;4.20;;;2.50;99.90;;;;;;5046888;28;20332;-79
2021/11/28 10:24:32;;;;;;;8.30;4.70;;;2.50;99.90;;;;;;5041834;28;20194;-79
2021/11/28 10:27:05;;;;;;;7.67;4.97;;;2.50;99.90;;;;;;5039302;28;20205;-78
2021/11/28 10:29:38;;;;;;;5.27;4.00;;;2.60;99.90;;;;;;5040777;28;20197;-79
2021/11/28 10:32:07;;;;;;;5.70;4.27;;;2.70;99.90;;;;;;5058569;28;20213;-79
2021/11/28 10:34:39;;;;;;;7.10;4.53;;;2.70;99.90;;;;;;5057666;28;20201;-78
2021/11/28 10:37:21;;;;;;;6.07;4.60;;;2.80;99.90;;;;;;5058600;28;20209;-79
2021/11/28 10:39:48;;;;;;;7.07;4.77;;;2.90;99.90;;;;;;5037057;28;20200;-78
2021/11/28 10:42:18;;;;;;;6.13;4.63;;;3.00;99.90;;;;;;5059090;28;20186;-79
2021/11/28 10:45:08;;;;;;;6.60;4.00;;;3.00;99.90;;;;;;5041336;28;20199;-77
2021/11/28 10:47:40;;;;;;;7.57;5.00;;;2.90;99.90;;;;;;5062837;28;20224;-81
2021/11/28 10:50:27;;;;;;;19.03;17.27;;;2.80;99.90;;;;;;5041306;28;20273;-79
2021/11/28 10:53:05;;;;;;;7.30;5.50;;;2.60;99.90;;;;;;5058406;28;20553;-78
2021/11/28 10:55:39;;;;;;;9.90;8.77;;;2.50;99.90;;;;;;5059146;28;20513;-79
2021/11/28 10:58:09;;;;;;;8.30;7.50;;;2.30;99.90;;;;;;5062733;28;20238;-79
2021/11/28 11:00:46;;;;;;;6.13;4.70;;;2.10;99.90;;;;;;5045539;28;20217;-79
2021/11/28 11:03:17;;;;;;;6.37;3.90;;;2.10;99.90;;;;;;5043528;28;20723;-81
2021/11/28 11:05:44;;;;;;;7.17;4.23;;;2.10;99.90;;;;;;5044115;28;20294;-78
2021/11/28 11:08:12;;;;;;;7.60;5.07;;;2.00;99.90;;;;;;5063961;28;20267;-78
2021/11/28 11:10:38;;;;;;;8.70;5.70;;;2.10;99.90;;;;;;5045092;28;20185;-79
2021/11/28 11:13:06;;;;;;;8.70;5.30;;;2.30;99.90;;;;;;5046758;28;20182;-79
2021/11/28 11:15:49;;;;;;;7.93;5.17;;;2.40;99.90;;;;;;5061120;28;20241;-80
2021/11/28 11:18:20;;;;;;;7.67;4.90;;;2.50;99.90;;;;;;5045767;28;20209;-81
2021/11/28 11:20:51;;;;;;;9.47;5.77;;;2.60;99.90;;;;;;5044644;28;20231;-81
2021/11/28 11:23:42;;;;;;;9.47;5.60;;;2.70;99.90;;;;;;5042931;28;20243;-79
2021/11/28 11:26:15;;;;;;;6.63;4.83;;;3.00;99.90;;;;;;5044457;28;20186;-79
2021/11/28 11:29:01;;;;;;;7.70;4.77;;;3.20;99.90;;;;;;5062103;28;20758;-80
2021/11/28 11:31:27;;;;;;;7.50;5.10;;;3.30;99.90;;;;;;5040890;28;20622;-81
2021/11/28 11:33:52;;;;;;;8.80;5.17;;;3.40;99.90;;;;;;5044266;28;20181;-79
2021/11/28 11:36:18;;;;;;;6.87;4.60;;;3.40;99.90;;;;;;5060054;28;20193;-80
2021/11/28 11:38:44;;;;;;;6.20;4.80;;;3.60;99.90;;;;;;5038684;28;20210;-79
2021/11/28 11:41:09;;;;;;;9.70;5.80;;;3.50;99.90;;;;;;5063229;28;20666;-78
2021/11/28 11:43:37;;;;;;;9.73;5.60;;;3.40;99.90;;;;;;5063409;28;20185;-77
2021/11/28 11:46:08;;;;;;;7.10;5.20;;;3.60;99.90;;;;;;5048604;28;20350;-78
2021/11/28 11:48:34;;;;;;;6.23;4.57;;;3.90;99.90;;;;;;5058807;28;20236;-78
2021/11/28 11:51:04;;;;;;;7.83;5.00;;;4.10;99.90;;;;;;5068913;28;20189;-77
2021/11/28 11:53:31;;;;;;;8.73;5.00;;;4.30;99.90;;;;;;5068554;28;20197;-78
2021/11/28 11:55:57;;;;;;;6.53;4.97;;;4.40;99.90;;;;;;5067483;28;20200;-78
2021/11/28 11:58:50;;;;;;;8.20;5.73;;;4.50;99.90;;;;;;5066391;28;20235;-77
2021/11/28 12:01:27;;;;;;;8.27;5.77;;;4.70;99.90;;;;;;5064204;28;20188;-79
2021/11/28 12:03:54;;;;;;;9.77;6.33;;;4.80;99.90;;;;;;5064771;28;20185;-79
2021/11/28 12:06:42;;;;;;;7.73;5.27;;;4.70;99.90;;;;;;5063959;28;20188;-78
2021/11/28 12:09:23;;;;;;;9.07;5.43;;;4.50;99.90;;;;;;5045407;28;20220;-78
2021/11/28 12:12:00;;;;;;;8.13;5.30;;;4.50;99.90;;;;;;5045373;28;20192;-78
2021/11/28 12:14:27;;;;;;;8.87;5.60;;;4.70;99.90;;;;;;5062796;28;20209;-79
2021/11/28 12:16:53;;;;;;;8.63;5.37;;;4.60;99.90;;;;;;5064258;28;20182;-78
2021/11/28 12:19:40;;;;;;;6.93;5.17;;;4.70;99.90;;;;;;5047760;28;20198;-78
2021/11/28 12:22:08;;;;;;;9.20;5.37;;;4.60;99.90;;;;;;5058543;28;20319;-81
2021/11/28 12:24:34;;;;;;;8.23;5.50;;;4.70;99.90;;;;;;5068503;28;20177;-78
2021/11/28 12:27:02;;;;;;;7.83;5.17;;;4.50;99.90;;;;;;5068324;28;20209;-80
2021/11/28 12:29:37;;;;;;;9.07;5.13;;;4.40;99.90;;;;;;5070203;28;20692;-78
2021/11/28 12:32:08;;;;;;;8.23;5.83;;;4.40;99.90;;;;;;5070522;28;21330;-78
2021/11/28 12:34:45;;;;;;;9.97;5.33;;;4.30;99.90;;;;;;5071211;28;20182;-78
2021/11/28 12:37:24;;;;;;;9.37;5.50;;;4.30;99.90;;;;;;5070468;28;20759;-80
2021/11/28 12:39:51;;;;;;;11.20;6.60;;;4.30;99.90;;;;;;5051441;28;20659;-81
2021/11/28 12:42:21;;;;;;;12.47;6.67;;;4.20;99.90;;;;;;5050744;28;20174;-79
2021/11/28 12:44:50;;;;;;;10.07;6.13;;;4.20;99.90;;;;;;5067940;28;20526;-80
2021/11/28 12:47:15;;;;;;;14.70;8.03;;;4.10;99.90;;;;;;5069538;28;20233;-79
2021/11/28 12:49:45;;;;;;;19.37;9.60;;;4.00;99.90;;;;;;5069984;28;20601;-80
2021/11/28 12:52:14;;;;;;;17.37;9.33;;;4.00;99.90;;;;;;5069834;28;20224;-80
2021/11/28 12:54:41;;;;;;;13.97;6.90;;;4.00;99.90;;;;;;5049978;28;20189;-79
2021/11/28 12:57:19;;;;;;;9.87;6.47;;;4.00;99.90;;;;;;5048198;28;20251;-80
2021/11/28 13:00:22;;;;;;;11.07;6.37;;;4.00;99.90;;;;;;5068076;28;20181;-77